createdAt,value
2023-02-23T18:23:00.670Z,40.69
2023-02-23T18:25:27.231Z,41.18
2023-02-23T18:27:53.645Z,36.76
2023-02-23T18:30:20.038Z,33.88
2023-02-23T18:32:46.559Z,38.12
2023-02-23T18:35:13.092Z,34.93
2023-02-23T18:37:39.485Z,36.06
2023-02-23T18:40:05.900Z,35.19
2023-02-23T18:42:32.323Z,36.31
2023-02-23T18:44:58.736Z,38.58
2023-02-23T18:47:25.142Z,37.88
2023-02-23T18:49:51.551Z,39.35
2023-02-23T18:52:17.947Z,40.01
2023-02-23T18:54:44.351Z,40.93
2023-02-23T18:57:10.744Z,42.19
2023-02-23T18:59:37.155Z,43.75
2023-02-23T19:02:03.540Z,44.77
2023-02-23T19:04:29.910Z,43.85
2023-02-23T19:06:56.302Z,43.73
2023-02-23T19:09:22.684Z,43.70
2023-02-23T19:11:49.094Z,42.17
2023-02-23T19:14:15.505Z,40.66
2023-02-23T19:16:41.958Z,42.98
2023-02-23T19:19:08.369Z,45.05
2023-02-23T19:21:34.794Z,44.83
2023-02-23T19:24:01.198Z,45.01
2023-02-23T19:26:27.585Z,46.30
2023-02-23T19:28:53.979Z,45.80
2023-02-23T19:31:20.724Z,46.24
2023-02-23T19:33:47.430Z,46.44
2023-02-23T19:36:13.826Z,46.15
2023-02-23T19:38:40.231Z,46.25
2023-02-23T19:41:06.615Z,46.69
2023-02-23T19:43:33.031Z,45.77
2023-02-23T19:45:59.476Z,45.48
2023-02-23T19:48:25.929Z,46.23
2023-02-23T19:50:52.352Z,45.86
2023-02-23T19:53:18.873Z,45.51
2023-02-23T19:55:45.321Z,46.63
2023-02-23T19:58:11.722Z,44.63
2023-02-23T20:00:38.115Z,44.84
2023-02-23T20:03:04.504Z,44.54
2023-02-23T20:05:31.091Z,44.50
2023-02-23T20:07:57.530Z,44.63
2023-02-23T20:10:23.984Z,44.04
2023-02-23T20:12:50.374Z,44.31
2023-02-23T20:15:16.777Z,42.71
2023-02-23T20:17:43.174Z,43.55
2023-02-23T20:20:09.566Z,43.01
2023-02-23T20:22:35.962Z,42.74
2023-02-23T20:25:02.373Z,43.03
2023-02-23T20:27:28.750Z,42.37
2023-02-23T20:29:55.152Z,42.31
2023-02-23T20:32:21.633Z,42.35
2023-02-23T20:34:48.094Z,42.43
2023-02-23T20:37:14.504Z,41.85
2023-02-23T20:39:40.897Z,40.92
2023-02-23T20:42:07.317Z,41.34
2023-02-23T20:44:33.703Z,40.70
2023-02-23T20:47:00.131Z,40.73
2023-02-23T20:49:26.529Z,39.69
2023-02-23T20:51:52.907Z,40.04
2023-02-23T20:54:19.297Z,39.16
2023-02-23T20:56:45.699Z,39.99
2023-02-23T20:59:12.109Z,39.66
2023-02-23T21:01:38.558Z,38.83
2023-02-23T21:04:04.987Z,38.60
2023-02-23T21:06:31.399Z,38.70
2023-02-23T21:08:57.791Z,37.95
2023-02-23T21:11:24.232Z,36.92
2023-02-23T21:13:50.650Z,37.42
2023-02-23T21:16:17.125Z,36.32
2023-02-23T21:18:43.562Z,35.83
2023-02-23T21:21:10.186Z,35.19
2023-02-23T21:23:36.713Z,34.83
2023-02-23T21:26:03.087Z,35.66
2023-02-23T21:28:29.486Z,35.13
2023-02-23T21:30:55.909Z,34.95
2023-02-23T21:33:22.312Z,34.27
2023-02-23T21:35:48.714Z,33.92
2023-02-23T21:38:15.114Z,34.12
2023-02-23T21:40:41.520Z,33.81
2023-02-23T21:43:07.942Z,33.17
2023-02-23T21:45:34.342Z,32.63
2023-02-23T21:48:00.738Z,32.72
2023-02-23T21:50:27.148Z,32.08
2023-02-23T21:52:53.553Z,32.57
2023-02-23T21:55:21.458Z,32.27
2023-02-23T21:57:48.407Z,31.89
2023-02-23T22:00:14.804Z,32.22
2023-02-23T22:02:41.308Z,31.70
2023-02-23T22:05:07.766Z,31.35
2023-02-23T22:07:34.165Z,30.08
2023-02-23T22:10:00.572Z,30.40
2023-02-23T22:12:26.970Z,30.17
2023-02-23T22:14:53.372Z,30.35
2023-02-23T22:17:19.766Z,30.23
2023-02-23T22:19:46.187Z,29.38
2023-02-23T22:22:12.574Z,30.04
2023-02-23T22:24:38.983Z,29.63
2023-02-23T22:27:05.519Z,28.48
2023-02-23T22:29:31.930Z,28.51
2023-02-23T22:31:58.497Z,28.98
2023-02-23T22:34:24.991Z,27.91
2023-02-23T22:36:51.395Z,29.04
2023-02-23T22:39:17.794Z,28.58
2023-02-23T22:41:44.286Z,28.88
2023-02-23T22:44:10.677Z,27.06
2023-02-23T22:46:37.087Z,26.97
2023-02-23T22:49:03.485Z,26.74
2023-02-23T22:51:29.859Z,26.35
2023-02-23T22:53:56.278Z,26.58
2023-02-23T22:56:22.660Z,25.35
2023-02-23T22:58:49.062Z,25.09
2023-02-23T23:01:15.495Z,25.20
2023-02-23T23:03:41.972Z,25.44
2023-02-23T23:06:08.427Z,25.08
2023-02-23T23:08:34.815Z,24.40
2023-02-23T23:11:01.201Z,24.69
2023-02-23T23:13:27.614Z,24.65
2023-02-23T23:15:57.707Z,24.19
2023-02-23T23:18:29.755Z,24.35
2023-02-23T23:20:56.169Z,23.99
2023-02-23T23:23:22.655Z,23.93
2023-02-23T23:25:49.038Z,24.33
2023-02-23T23:28:15.427Z,23.68
2023-02-23T23:30:41.808Z,22.93
2023-02-23T23:33:08.404Z,23.18
2023-02-23T23:35:34.883Z,23.09
2023-02-23T23:38:01.266Z,22.67
2023-02-23T23:40:27.669Z,22.48
2023-02-23T23:42:54.074Z,22.45
2023-02-23T23:45:20.477Z,22.39
2023-02-23T23:47:46.901Z,22.49
2023-02-23T23:50:13.306Z,21.78
2023-02-23T23:52:39.706Z,21.65
2023-02-23T23:55:06.086Z,21.43
2023-02-23T23:57:32.474Z,22.31
2023-02-23T23:59:58.877Z,21.27
